• Join FlightAware (Why Join?)
  • Login
  • US Flag 
03:21PM EDT


 

Airport Tracker/Info


-or-


 

Live Flight TrackerFlight Track Log ✈ ASQ5976 ✈ 14-Jun-2013 ✈ KDEN - KDRO

Flight Track Log - Related Links

Times and Time Zones

All times are in EDT time to prevent confusion due to time zone crossing. See the ASQ5976 flight status page for this flight to view local times or setup timezone preferences in your user account.

Time Position Orientation Groundspeed Altitude Reporting Facility
EDT Latitude Longitude Course Direction KTS MPH feet Rate Location/Type
10:22AM 39.8167 -104.6500 218° Southwest 181 208 6,500  Level Denver TRACON
10:23AM 39.7667 -104.6667 194° South 236 272 7,700 1,380 Climbing Denver TRACON
10:24AM 39.7000 -104.7000 201° Southwest 277 319 9,200 1,800 Climbing Denver TRACON
10:25AM 39.6289 -104.4022 201° Southwest  Level FlightAware Approximate
10:25AM 39.6167 -104.7000 180° South 300 345 11,400  Level Denver TRACON
10:26AM 39.5393 -104.4652 212° Southwest  Level FlightAware Approximate
10:26AM 39.5500 -104.7500 210° Southwest 314 361 12,700  Level Denver TRACON
10:27AM 39.4517 -104.5316 218° Southwest  Level FlightAware Approximate
10:27AM 39.4578 -104.8181 210° Southwest 334 384 14,500  Level Denver Center
10:28AM 39.3806 -104.8800 212° Southwest 328 377 17,000 2,280 Climbing Denver Center
10:29AM 39.3003 -104.9408 210° Southwest 310 357 19,200 1,860 Climbing Denver Center
10:30AM 39.2250 -104.9997 211° Southwest 316 364 20,900 1,560 Climbing Denver Center
10:31AM 39.1450 -105.0600 210° Southwest 333 383 22,500 1,560 Climbing Denver Center
10:32AM 39.0522 -105.1208 207° Southwest 335 386 24,200 1,560 Climbing Denver Center
10:33AM 38.9719 -105.1714 206° Southwest 335 386 25,800 840 Climbing Denver Center
10:34AM 38.8892 -105.2242 206° Southwest 343 395 26,000 60 Climbing Denver Center
10:35AM 38.7969 -105.2817 206° Southwest 368 423 26,000  Level Denver Center
10:36AM 38.6806 -105.3561 207° Southwest 403 464 26,000  Level Denver Center
10:37AM 38.5608 -105.4333 207° Southwest 421 484 26,000  Level Denver Center
10:38AM 38.4769 -105.5356 224° Southwest 435 501 26,000  Level Denver Center
10:39AM 38.3958 -105.6725 233° Southwest 436 502 26,000  Level Denver Center
10:40AM 38.3397 -105.7697 234° Southwest 432 497 26,000  Level Denver Center
10:41AM 38.2464 -105.9294 233° Southwest 438 504 26,000  Level Denver Center
10:42AM 38.1778 -106.0458 233° Southwest 433 498 26,000  Level Denver Center
10:43AM 38.0986 -106.1814 233° Southwest 433 498 26,000  Level Denver Center
10:45AM 38.0278 -106.3025 233° Southwest 427 491 26,000  Level Denver Center
10:46AM 37.9583 -106.4189 233° Southwest 431 496 26,000  Level Denver Center
10:47AM 37.8792 -106.5519 233° Southwest 425 489 26,000  Level Denver Center
10:48AM 37.8100 -106.6683 233° Southwest 430 495 26,000  Level Denver Center
10:49AM 37.7297 -106.8028 233° Southwest 429 494 26,000 -600 Level Denver Center
10:50AM 37.6608 -106.9169 233° Southwest 429 494 24,800 -2,280 Descending Denver Center
10:51AM 37.5861 -107.0419 233° Southwest 405 466 21,300 -3,300 Descending Denver Center
10:52AM 37.5258 -107.1453 234° Southwest 392 451 18,100 -2,640 Descending Denver Center
10:53AM 37.4558 -107.2589 232° Southwest 377 434 15,900 -1,020 Descending Denver Center
10:54AM 37.4017 -107.3514 234° Southwest 357 411 16,000  Climbing Denver Center
10:55AM 37.3386 -107.4556 233° Southwest 343 395 15,900 -780 Descending Denver Center
10:56AM 37.2889 -107.5358 232° Southwest 320 368 14,500 -1,380 Descending Denver Center